sensor_id;sensor_type;location;lat;lon;timestamp;P1;durP1;ratioP1;P2;durP2;ratioP2
76208;SDS011;64990;51.698;-0.292;2024-02-16T00:00:16;13.32;;;5.25;;
76208;SDS011;64990;51.698;-0.292;2024-02-16T00:02:42;16.67;;;5.43;;
76208;SDS011;64990;51.698;-0.292;2024-02-16T00:05:09;14.55;;;4.82;;
76208;SDS011;64990;51.698;-0.292;2024-02-16T00:07:38;13.32;;;4.28;;
76208;SDS011;64990;51.698;-0.292;2024-02-16T00:10:05;20.45;;;6.80;;
76208;SDS011;64990;51.698;-0.292;2024-02-16T00:12:31;8.20;;;4.35;;
76208;SDS011;64990;51.698;-0.292;2024-02-16T00:14:58;8.80;;;5.20;;
76208;SDS011;64990;51.698;-0.292;2024-02-16T00:17:24;13.90;;;5.60;;
76208;SDS011;64990;51.698;-0.292;2024-02-16T00:19:57;12.27;;;5.45;;
76208;SDS011;64990;51.698;-0.292;2024-02-16T00:22:23;20.40;;;5.07;;
76208;SDS011;64990;51.698;-0.292;2024-02-16T00:24:49;14.27;;;5.40;;
76208;SDS011;64990;51.698;-0.292;2024-02-16T00:27:15;11.40;;;5.88;;
76208;SDS011;64990;51.698;-0.292;2024-02-16T00:29:42;19.90;;;5.22;;
76208;SDS011;64990;51.698;-0.292;2024-02-16T00:32:08;9.07;;;5.28;;
76208;SDS011;64990;51.698;-0.292;2024-02-16T00:34:35;17.05;;;5.70;;
76208;SDS011;64990;51.698;-0.292;2024-02-16T00:37:01;20.02;;;7.38;;
76208;SDS011;64990;51.698;-0.292;2024-02-16T00:39:30;21.35;;;5.13;;
76208;SDS011;64990;51.698;-0.292;2024-02-16T00:41:56;18.83;;;7.03;;
76208;SDS011;64990;51.698;-0.292;2024-02-16T00:44:22;14.27;;;5.25;;
76208;SDS011;64990;51.698;-0.292;2024-02-16T00:46:48;11.45;;;5.68;;
76208;SDS011;64990;51.698;-0.292;2024-02-16T00:49:14;11.43;;;5.53;;
76208;SDS011;64990;51.698;-0.292;2024-02-16T00:51:40;18.95;;;6.45;;
76208;SDS011;64990;51.698;-0.292;2024-02-16T00:54:06;18.10;;;6.82;;
76208;SDS011;64990;51.698;-0.292;2024-02-16T00:56:32;16.63;;;4.85;;
76208;SDS011;64990;51.698;-0.292;2024-02-16T00:58:58;17.35;;;5.53;;
76208;SDS011;64990;51.698;-0.292;2024-02-16T01:01:24;15.00;;;5.50;;
76208;SDS011;64990;51.698;-0.292;2024-02-16T01:03:51;13.02;;;5.53;;
76208;SDS011;64990;51.698;-0.292;2024-02-16T01:06:18;20.52;;;7.22;;
76208;SDS011;64990;51.698;-0.292;2024-02-16T01:08:44;14.57;;;5.90;;
76208;SDS011;64990;51.698;-0.292;2024-02-16T01:11:11;9.38;;;6.10;;
76208;SDS011;64990;51.698;-0.292;2024-02-16T01:13:37;24.52;;;6.90;;
76208;SDS011;64990;51.698;-0.292;2024-02-16T01:16:03;10.45;;;6.82;;
76208;SDS011;64990;51.698;-0.292;2024-02-16T01:18:29;18.25;;;7.18;;
76208;SDS011;64990;51.698;-0.292;2024-02-16T01:20:57;15.82;;;5.95;;
76208;SDS011;64990;51.698;-0.292;2024-02-16T01:23:23;19.40;;;8.25;;
76208;SDS011;64990;51.698;-0.292;2024-02-16T01:25:49;15.80;;;7.25;;
76208;SDS011;64990;51.698;-0.292;2024-02-16T01:28:15;21.23;;;7.03;;
76208;SDS011;64990;51.698;-0.292;2024-02-16T01:30:41;20.08;;;6.38;;
76208;SDS011;64990;51.698;-0.292;2024-02-16T01:33:08;16.80;;;7.20;;
76208;SDS011;64990;51.698;-0.292;2024-02-16T01:35:34;17.80;;;7.82;;
76208;SDS011;64990;51.698;-0.292;2024-02-16T01:38:00;18.80;;;9.27;;
76208;SDS011;64990;51.698;-0.292;2024-02-16T01:40:30;18.40;;;9.80;;
76208;SDS011;64990;51.698;-0.292;2024-02-16T01:42:56;19.40;;;8.85;;
76208;SDS011;64990;51.698;-0.292;2024-02-16T01:45:22;18.13;;;9.13;;
76208;SDS011;64990;51.698;-0.292;2024-02-16T01:47:52;22.17;;;10.32;;
76208;SDS011;64990;51.698;-0.292;2024-02-16T01:50:19;27.40;;;8.35;;
76208;SDS011;64990;51.698;-0.292;2024-02-16T01:52:46;22.17;;;11.32;;
76208;SDS011;64990;51.698;-0.292;2024-02-16T01:55:12;26.02;;;9.85;;
76208;SDS011;64990;51.698;-0.292;2024-02-16T01:57:39;17.92;;;9.63;;
76208;SDS011;64990;51.698;-0.292;2024-02-16T02:00:05;22.02;;;9.25;;
76208;SDS011;64990;51.698;-0.292;2024-02-16T02:02:33;23.73;;;9.93;;
76208;SDS011;64990;51.698;-0.292;2024-02-16T02:04:59;29.42;;;10.50;;
76208;SDS011;64990;51.698;-0.292;2024-02-16T02:07:26;19.50;;;9.63;;
76208;SDS011;64990;51.698;-0.292;2024-02-16T02:09:52;19.10;;;9.88;;
76208;SDS011;64990;51.698;-0.292;2024-02-16T02:12:18;26.00;;;8.35;;
76208;SDS011;64990;51.698;-0.292;2024-02-16T02:14:44;13.45;;;6.15;;
76208;SDS011;64990;51.698;-0.292;2024-02-16T02:17:11;20.65;;;7.65;;
76208;SDS011;64990;51.698;-0.292;2024-02-16T02:19:37;13.80;;;6.90;;
76208;SDS011;64990;51.698;-0.292;2024-02-16T02:22:04;22.05;;;6.75;;
76208;SDS011;64990;51.698;-0.292;2024-02-16T02:24:30;12.95;;;6.40;;
76208;SDS011;64990;51.698;-0.292;2024-02-16T02:26:56;14.60;;;6.80;;
76208;SDS011;64990;51.698;-0.292;2024-02-16T02:29:22;11.43;;;4.72;;
76208;SDS011;64990;51.698;-0.292;2024-02-16T02:31:48;10.52;;;4.82;;
76208;SDS011;64990;51.698;-0.292;2024-02-16T02:34:14;5.70;;;3.67;;
76208;SDS011;64990;51.698;-0.292;2024-02-16T02:36:40;8.00;;;3.00;;
76208;SDS011;64990;51.698;-0.292;2024-02-16T02:39:06;3.13;;;2.63;;
76208;SDS011;64990;51.698;-0.292;2024-02-16T02:41:32;3.20;;;2.55;;
76208;SDS011;64990;51.698;-0.292;2024-02-16T02:43:59;6.03;;;2.70;;
76208;SDS011;64990;51.698;-0.292;2024-02-16T02:46:25;3.75;;;2.08;;
76208;SDS011;64990;51.698;-0.292;2024-02-16T02:48:52;3.50;;;1.92;;
76208;SDS011;64990;51.698;-0.292;2024-02-16T02:51:18;3.50;;;2.33;;
76208;SDS011;64990;51.698;-0.292;2024-02-16T02:53:44;3.95;;;1.70;;
76208;SDS011;64990;51.698;-0.292;2024-02-16T02:56:11;4.25;;;1.52;;
76208;SDS011;64990;51.698;-0.292;2024-02-16T02:58:38;2.90;;;2.13;;
76208;SDS011;64990;51.698;-0.292;2024-02-16T03:01:04;3.50;;;1.92;;
76208;SDS011;64990;51.698;-0.292;2024-02-16T03:03:33;2.70;;;1.98;;
76208;SDS011;64990;51.698;-0.292;2024-02-16T03:05:59;4.93;;;2.67;;
76208;SDS011;64990;51.698;-0.292;2024-02-16T03:08:25;3.53;;;2.00;;
76208;SDS011;64990;51.698;-0.292;2024-02-16T03:10:51;5.75;;;2.22;;
76208;SDS011;64990;51.698;-0.292;2024-02-16T03:13:17;2.28;;;1.98;;
76208;SDS011;64990;51.698;-0.292;2024-02-16T03:15:44;3.65;;;1.77;;
76208;SDS011;64990;51.698;-0.292;2024-02-16T03:18:10;4.50;;;2.40;;
76208;SDS011;64990;51.698;-0.292;2024-02-16T03:20:36;4.57;;;2.72;;
76208;SDS011;64990;51.698;-0.292;2024-02-16T03:23:02;9.13;;;1.98;;
76208;SDS011;64990;51.698;-0.292;2024-02-16T03:25:28;8.10;;;2.40;;
76208;SDS011;64990;51.698;-0.292;2024-02-16T03:27:54;3.47;;;2.50;;
76208;SDS011;64990;51.698;-0.292;2024-02-16T03:30:21;3.35;;;2.00;;
76208;SDS011;64990;51.698;-0.292;2024-02-16T03:32:50;3.22;;;1.92;;
76208;SDS011;64990;51.698;-0.292;2024-02-16T03:35:17;3.80;;;2.10;;
76208;SDS011;64990;51.698;-0.292;2024-02-16T03:37:43;3.92;;;2.10;;
76208;SDS011;64990;51.698;-0.292;2024-02-16T03:40:10;3.28;;;2.25;;
76208;SDS011;64990;51.698;-0.292;2024-02-16T03:42:37;3.60;;;2.20;;
76208;SDS011;64990;51.698;-0.292;2024-02-16T03:45:03;2.10;;;1.80;;
76208;SDS011;64990;51.698;-0.292;2024-02-16T03:47:29;2.33;;;1.42;;
76208;SDS011;64990;51.698;-0.292;2024-02-16T03:49:55;2.40;;;2.20;;
76208;SDS011;64990;51.698;-0.292;2024-02-16T03:52:23;3.45;;;1.80;;
76208;SDS011;64990;51.698;-0.292;2024-02-16T03:54:49;6.88;;;2.47;;
76208;SDS011;64990;51.698;-0.292;2024-02-16T03:57:16;3.55;;;2.13;;
76208;SDS011;64990;51.698;-0.292;2024-02-16T03:59:42;4.30;;;2.35;;
76208;SDS011;64990;51.698;-0.292;2024-02-16T04:02:09;10.57;;;3.17;;
76208;SDS011;64990;51.698;-0.292;2024-02-16T04:04:35;5.95;;;2.70;;
76208;SDS011;64990;51.698;-0.292;2024-02-16T04:07:01;3.17;;;2.30;;
76208;SDS011;64990;51.698;-0.292;2024-02-16T04:09:27;4.10;;;2.67;;
76208;SDS011;64990;51.698;-0.292;2024-02-16T04:11:53;6.30;;;2.47;;
76208;SDS011;64990;51.698;-0.292;2024-02-16T04:14:19;7.15;;;2.55;;
76208;SDS011;64990;51.698;-0.292;2024-02-16T04:16:45;6.93;;;3.10;;
76208;SDS011;64990;51.698;-0.292;2024-02-16T04:19:11;9.45;;;2.80;;
76208;SDS011;64990;51.698;-0.292;2024-02-16T04:21:37;4.60;;;2.50;;
76208;SDS011;64990;51.698;-0.292;2024-02-16T04:24:03;3.30;;;2.20;;
76208;SDS011;64990;51.698;-0.292;2024-02-16T04:26:29;6.13;;;2.45;;
76208;SDS011;64990;51.698;-0.292;2024-02-16T04:28:55;6.15;;;2.70;;
76208;SDS011;64990;51.698;-0.292;2024-02-16T04:31:21;3.80;;;1.95;;
76208;SDS011;64990;51.698;-0.292;2024-02-16T04:33:47;6.47;;;2.58;;
76208;SDS011;64990;51.698;-0.292;2024-02-16T04:36:13;3.85;;;2.47;;
76208;SDS011;64990;51.698;-0.292;2024-02-16T04:38:40;6.82;;;3.22;;
76208;SDS011;64990;51.698;-0.292;2024-02-16T04:41:06;3.35;;;1.92;;
76208;SDS011;64990;51.698;-0.292;2024-02-16T04:43:33;7.43;;;2.50;;
76208;SDS011;64990;51.698;-0.292;2024-02-16T04:45:59;6.20;;;3.67;;
76208;SDS011;64990;51.698;-0.292;2024-02-16T04:48:25;5.43;;;2.60;;
76208;SDS011;64990;51.698;-0.292;2024-02-16T04:50:51;7.15;;;2.70;;
76208;SDS011;64990;51.698;-0.292;2024-02-16T04:53:17;5.05;;;2.20;;
76208;SDS011;64990;51.698;-0.292;2024-02-16T04:55:43;5.57;;;3.00;;
76208;SDS011;64990;51.698;-0.292;2024-02-16T04:58:09;4.78;;;3.10;;
76208;SDS011;64990;51.698;-0.292;2024-02-16T05:00:36;17.00;;;3.25;;
76208;SDS011;64990;51.698;-0.292;2024-02-16T05:03:03;8.18;;;3.38;;
76208;SDS011;64990;51.698;-0.292;2024-02-16T05:05:29;5.10;;;3.75;;
76208;SDS011;64990;51.698;-0.292;2024-02-16T05:07:55;7.03;;;3.05;;
76208;SDS011;64990;51.698;-0.292;2024-02-16T05:10:22;4.38;;;2.85;;
76208;SDS011;64990;51.698;-0.292;2024-02-16T05:12:48;4.47;;;2.97;;
76208;SDS011;64990;51.698;-0.292;2024-02-16T05:15:14;4.57;;;2.78;;
76208;SDS011;64990;51.698;-0.292;2024-02-16T05:17:40;7.78;;;2.63;;
76208;SDS011;64990;51.698;-0.292;2024-02-16T05:20:12;3.88;;;3.05;;
76208;SDS011;64990;51.698;-0.292;2024-02-16T05:22:43;3.25;;;2.33;;
76208;SDS011;64990;51.698;-0.292;2024-02-16T05:25:10;2.47;;;1.83;;
76208;SDS011;64990;51.698;-0.292;2024-02-16T05:27:36;5.80;;;1.80;;
76208;SDS011;64990;51.698;-0.292;2024-02-16T05:30:03;3.25;;;2.00;;
76208;SDS011;64990;51.698;-0.292;2024-02-16T05:32:32;2.17;;;1.45;;
76208;SDS011;64990;51.698;-0.292;2024-02-16T05:34:58;6.38;;;1.75;;
76208;SDS011;64990;51.698;-0.292;2024-02-16T05:37:25;4.93;;;1.27;;
76208;SDS011;64990;51.698;-0.292;2024-02-16T05:39:51;2.45;;;1.58;;
76208;SDS011;64990;51.698;-0.292;2024-02-16T05:42:32;2.38;;;1.23;;
76208;SDS011;64990;51.698;-0.292;2024-02-16T05:44:58;6.68;;;1.38;;
76208;SDS011;64990;51.698;-0.292;2024-02-16T05:47:24;2.35;;;1.70;;
76208;SDS011;64990;51.698;-0.292;2024-02-16T05:49:51;9.35;;;2.45;;
76208;SDS011;64990;51.698;-0.292;2024-02-16T05:52:17;3.08;;;1.30;;
76208;SDS011;64990;51.698;-0.292;2024-02-16T05:54:46;2.55;;;1.50;;
76208;SDS011;64990;51.698;-0.292;2024-02-16T05:57:13;2.92;;;1.85;;
76208;SDS011;64990;51.698;-0.292;2024-02-16T05:59:39;1.98;;;1.27;;
76208;SDS011;64990;51.698;-0.292;2024-02-16T06:02:06;2.35;;;1.35;;
76208;SDS011;64990;51.698;-0.292;2024-02-16T06:04:33;6.30;;;1.50;;
76208;SDS011;64990;51.698;-0.292;2024-02-16T06:06:59;4.13;;;1.80;;
76208;SDS011;64990;51.698;-0.292;2024-02-16T06:09:26;5.35;;;1.35;;
76208;SDS011;64990;51.698;-0.292;2024-02-16T06:11:59;2.88;;;1.30;;
76208;SDS011;64990;51.698;-0.292;2024-02-16T06:14:25;2.25;;;1.13;;
76208;SDS011;64990;51.698;-0.292;2024-02-16T06:16:51;2.97;;;1.15;;
76208;SDS011;64990;51.698;-0.292;2024-02-16T06:19:17;5.18;;;1.20;;
76208;SDS011;64990;51.698;-0.292;2024-02-16T06:21:43;3.60;;;1.33;;
76208;SDS011;64990;51.698;-0.292;2024-02-16T06:24:09;1.92;;;1.45;;
76208;SDS011;64990;51.698;-0.292;2024-02-16T06:26:35;1.08;;;1.00;;
76208;SDS011;64990;51.698;-0.292;2024-02-16T06:29:01;13.55;;;1.95;;
76208;SDS011;64990;51.698;-0.292;2024-02-16T06:31:27;1.77;;;1.30;;
76208;SDS011;64990;51.698;-0.292;2024-02-16T06:33:53;4.40;;;1.40;;
76208;SDS011;64990;51.698;-0.292;2024-02-16T06:36:20;40.70;;;1.65;;
76208;SDS011;64990;51.698;-0.292;2024-02-16T06:38:46;3.28;;;1.10;;
76208;SDS011;64990;51.698;-0.292;2024-02-16T06:41:12;4.03;;;1.77;;
76208;SDS011;64990;51.698;-0.292;2024-02-16T06:43:38;2.85;;;1.25;;
76208;SDS011;64990;51.698;-0.292;2024-02-16T06:46:04;0.82;;;0.70;;
76208;SDS011;64990;51.698;-0.292;2024-02-16T06:48:30;4.68;;;1.00;;
76208;SDS011;64990;51.698;-0.292;2024-02-16T06:50:56;2.33;;;0.85;;
76208;SDS011;64990;51.698;-0.292;2024-02-16T06:53:22;1.25;;;1.15;;
76208;SDS011;64990;51.698;-0.292;2024-02-16T06:55:48;2.97;;;0.70;;
76208;SDS011;64990;51.698;-0.292;2024-02-16T06:58:15;4.70;;;0.90;;
76208;SDS011;64990;51.698;-0.292;2024-02-16T07:00:41;6.40;;;0.90;;
76208;SDS011;64990;51.698;-0.292;2024-02-16T07:03:07;1.77;;;0.82;;
76208;SDS011;64990;51.698;-0.292;2024-02-16T07:05:34;2.38;;;0.90;;
76208;SDS011;64990;51.698;-0.292;2024-02-16T07:08:00;2.53;;;1.10;;
76208;SDS011;64990;51.698;-0.292;2024-02-16T07:10:26;3.08;;;1.23;;
76208;SDS011;64990;51.698;-0.292;2024-02-16T07:12:52;4.85;;;1.27;;
76208;SDS011;64990;51.698;-0.292;2024-02-16T07:15:18;4.82;;;2.13;;
76208;SDS011;64990;51.698;-0.292;2024-02-16T07:17:44;3.17;;;1.58;;
76208;SDS011;64990;51.698;-0.292;2024-02-16T07:20:11;22.23;;;3.63;;
76208;SDS011;64990;51.698;-0.292;2024-02-16T07:22:40;5.63;;;2.53;;
76208;SDS011;64990;51.698;-0.292;2024-02-16T07:25:07;8.45;;;3.10;;
76208;SDS011;64990;51.698;-0.292;2024-02-16T07:27:33;15.82;;;3.50;;
76208;SDS011;64990;51.698;-0.292;2024-02-16T07:29:59;7.43;;;3.80;;
76208;SDS011;64990;51.698;-0.292;2024-02-16T07:32:25;7.20;;;3.03;;
76208;SDS011;64990;51.698;-0.292;2024-02-16T07:34:51;8.27;;;3.80;;
76208;SDS011;64990;51.698;-0.292;2024-02-16T07:37:17;6.93;;;3.05;;
76208;SDS011;64990;51.698;-0.292;2024-02-16T07:39:43;5.00;;;3.53;;
76208;SDS011;64990;51.698;-0.292;2024-02-16T07:42:09;9.95;;;4.07;;
76208;SDS011;64990;51.698;-0.292;2024-02-16T07:44:37;7.65;;;4.35;;
76208;SDS011;64990;51.698;-0.292;2024-02-16T07:47:03;9.30;;;4.50;;
76208;SDS011;64990;51.698;-0.292;2024-02-16T07:49:29;11.15;;;3.95;;
76208;SDS011;64990;51.698;-0.292;2024-02-16T07:51:55;13.82;;;4.85;;
76208;SDS011;64990;51.698;-0.292;2024-02-16T07:54:22;10.20;;;4.57;;
76208;SDS011;64990;51.698;-0.292;2024-02-16T07:56:48;18.52;;;4.85;;
76208;SDS011;64990;51.698;-0.292;2024-02-16T07:59:15;14.88;;;5.18;;
76208;SDS011;64990;51.698;-0.292;2024-02-16T08:01:41;12.65;;;5.43;;
76208;SDS011;64990;51.698;-0.292;2024-02-16T08:04:09;8.98;;;4.53;;
76208;SDS011;64990;51.698;-0.292;2024-02-16T08:06:35;14.98;;;4.13;;
76208;SDS011;64990;51.698;-0.292;2024-02-16T08:09:01;11.32;;;5.00;;
76208;SDS011;64990;51.698;-0.292;2024-02-16T08:11:27;9.85;;;5.18;;
76208;SDS011;64990;51.698;-0.292;2024-02-16T08:13:53;14.52;;;5.18;;
76208;SDS011;64990;51.698;-0.292;2024-02-16T08:16:24;11.98;;;3.90;;
76208;SDS011;64990;51.698;-0.292;2024-02-16T08:18:50;23.85;;;4.60;;
76208;SDS011;64990;51.698;-0.292;2024-02-16T08:21:16;14.38;;;4.45;;
76208;SDS011;64990;51.698;-0.292;2024-02-16T08:23:42;7.57;;;4.22;;
76208;SDS011;64990;51.698;-0.292;2024-02-16T08:26:08;24.08;;;5.53;;
76208;SDS011;64990;51.698;-0.292;2024-02-16T08:28:33;24.83;;;6.60;;
76208;SDS011;64990;51.698;-0.292;2024-02-16T08:31:00;15.80;;;5.47;;
76208;SDS011;64990;51.698;-0.292;2024-02-16T08:33:26;12.48;;;5.65;;
76208;SDS011;64990;51.698;-0.292;2024-02-16T08:35:52;14.82;;;8.05;;
76208;SDS011;64990;51.698;-0.292;2024-02-16T08:38:18;17.75;;;5.18;;
76208;SDS011;64990;51.698;-0.292;2024-02-16T08:40:44;13.50;;;4.88;;
76208;SDS011;64990;51.698;-0.292;2024-02-16T08:43:09;15.48;;;4.82;;
76208;SDS011;64990;51.698;-0.292;2024-02-16T08:45:35;36.70;;;7.95;;
76208;SDS011;64990;51.698;-0.292;2024-02-16T08:48:01;15.55;;;4.93;;
76208;SDS011;64990;51.698;-0.292;2024-02-16T08:50:28;11.77;;;4.90;;
76208;SDS011;64990;51.698;-0.292;2024-02-16T08:52:55;23.63;;;4.78;;
76208;SDS011;64990;51.698;-0.292;2024-02-16T08:55:21;21.05;;;5.57;;
76208;SDS011;64990;51.698;-0.292;2024-02-16T08:57:47;23.30;;;6.43;;
76208;SDS011;64990;51.698;-0.292;2024-02-16T09:00:13;13.85;;;5.40;;
76208;SDS011;64990;51.698;-0.292;2024-02-16T09:02:41;17.98;;;6.18;;
76208;SDS011;64990;51.698;-0.292;2024-02-16T09:05:07;18.67;;;5.32;;
76208;SDS011;64990;51.698;-0.292;2024-02-16T09:07:35;22.60;;;7.15;;
76208;SDS011;64990;51.698;-0.292;2024-02-16T09:10:01;16.80;;;5.80;;
76208;SDS011;64990;51.698;-0.292;2024-02-16T09:12:27;22.85;;;6.22;;
76208;SDS011;64990;51.698;-0.292;2024-02-16T09:14:53;22.38;;;6.35;;
76208;SDS011;64990;51.698;-0.292;2024-02-16T09:17:19;10.88;;;4.63;;
76208;SDS011;64990;51.698;-0.292;2024-02-16T09:19:45;13.40;;;4.40;;
76208;SDS011;64990;51.698;-0.292;2024-02-16T09:22:11;20.48;;;5.40;;
76208;SDS011;64990;51.698;-0.292;2024-02-16T09:24:37;18.98;;;5.88;;
76208;SDS011;64990;51.698;-0.292;2024-02-16T09:27:04;15.57;;;4.68;;
76208;SDS011;64990;51.698;-0.292;2024-02-16T09:29:30;14.07;;;4.90;;
76208;SDS011;64990;51.698;-0.292;2024-02-16T09:31:56;10.90;;;3.30;;
76208;SDS011;64990;51.698;-0.292;2024-02-16T09:34:22;13.05;;;3.63;;
76208;SDS011;64990;51.698;-0.292;2024-02-16T09:36:48;11.95;;;5.30;;
76208;SDS011;64990;51.698;-0.292;2024-02-16T09:39:15;20.05;;;5.50;;
76208;SDS011;64990;51.698;-0.292;2024-02-16T09:41:41;14.88;;;4.65;;
76208;SDS011;64990;51.698;-0.292;2024-02-16T09:44:10;15.95;;;5.00;;
76208;SDS011;64990;51.698;-0.292;2024-02-16T09:46:36;11.18;;;4.57;;
76208;SDS011;64990;51.698;-0.292;2024-02-16T09:49:03;18.23;;;4.72;;
76208;SDS011;64990;51.698;-0.292;2024-02-16T09:51:29;11.05;;;4.97;;
76208;SDS011;64990;51.698;-0.292;2024-02-16T09:53:56;17.77;;;4.63;;
76208;SDS011;64990;51.698;-0.292;2024-02-16T09:56:22;10.68;;;4.30;;
76208;SDS011;64990;51.698;-0.292;2024-02-16T09:58:50;16.85;;;4.85;;
76208;SDS011;64990;51.698;-0.292;2024-02-16T10:01:17;9.88;;;4.85;;
76208;SDS011;64990;51.698;-0.292;2024-02-16T10:03:44;12.82;;;3.28;;
76208;SDS011;64990;51.698;-0.292;2024-02-16T10:06:10;10.93;;;5.00;;
76208;SDS011;64990;51.698;-0.292;2024-02-16T10:11:15;26.98;;;3.72;;
76208;SDS011;64990;51.698;-0.292;2024-02-16T10:13:44;16.50;;;3.75;;
76208;SDS011;64990;51.698;-0.292;2024-02-16T10:18:44;13.85;;;3.92;;
76208;SDS011;64990;51.698;-0.292;2024-02-16T10:21:10;18.33;;;6.40;;
76208;SDS011;64990;51.698;-0.292;2024-02-16T10:23:37;11.15;;;3.22;;
76208;SDS011;64990;51.698;-0.292;2024-02-16T10:26:03;16.52;;;4.78;;
76208;SDS011;64990;51.698;-0.292;2024-02-16T10:28:29;12.52;;;3.85;;
76208;SDS011;64990;51.698;-0.292;2024-02-16T10:30:59;15.25;;;3.63;;
76208;SDS011;64990;51.698;-0.292;2024-02-16T10:33:30;18.03;;;3.87;;
76208;SDS011;64990;51.698;-0.292;2024-02-16T10:35:57;9.32;;;2.70;;
76208;SDS011;64990;51.698;-0.292;2024-02-16T10:38:24;14.57;;;2.63;;
76208;SDS011;64990;51.698;-0.292;2024-02-16T10:40:52;4.68;;;2.17;;
76208;SDS011;64990;51.698;-0.292;2024-02-16T10:43:19;8.32;;;2.70;;
76208;SDS011;64990;51.698;-0.292;2024-02-16T10:45:47;6.00;;;2.95;;
76208;SDS011;64990;51.698;-0.292;2024-02-16T10:48:17;12.27;;;3.40;;
76208;SDS011;64990;51.698;-0.292;2024-02-16T10:50:43;9.98;;;2.50;;
76208;SDS011;64990;51.698;-0.292;2024-02-16T10:53:31;6.35;;;2.72;;
76208;SDS011;64990;51.698;-0.292;2024-02-16T10:55:58;13.82;;;2.75;;
76208;SDS011;64990;51.698;-0.292;2024-02-16T10:58:24;11.95;;;3.70;;
76208;SDS011;64990;51.698;-0.292;2024-02-16T11:00:51;12.40;;;1.77;;
76208;SDS011;64990;51.698;-0.292;2024-02-16T11:03:17;23.85;;;4.13;;
76208;SDS011;64990;51.698;-0.292;2024-02-16T11:05:43;5.60;;;1.55;;
76208;SDS011;64990;51.698;-0.292;2024-02-16T11:08:17;10.73;;;2.75;;
76208;SDS011;64990;51.698;-0.292;2024-02-16T11:11:02;9.10;;;2.60;;
76208;SDS011;64990;51.698;-0.292;2024-02-16T11:13:32;11.13;;;2.65;;
76208;SDS011;64990;51.698;-0.292;2024-02-16T11:16:00;7.15;;;1.60;;
76208;SDS011;64990;51.698;-0.292;2024-02-16T11:18:30;11.93;;;2.67;;
76208;SDS011;64990;51.698;-0.292;2024-02-16T11:21:00;7.45;;;1.52;;
76208;SDS011;64990;51.698;-0.292;2024-02-16T11:23:29;8.95;;;2.50;;
76208;SDS011;64990;51.698;-0.292;2024-02-16T11:26:02;4.05;;;1.52;;
76208;SDS011;64990;51.698;-0.292;2024-02-16T11:28:30;4.28;;;2.05;;
76208;SDS011;64990;51.698;-0.292;2024-02-16T11:30:57;8.80;;;1.42;;
76208;SDS011;64990;51.698;-0.292;2024-02-16T11:33:23;9.45;;;2.75;;
76208;SDS011;64990;51.698;-0.292;2024-02-16T11:35:58;7.55;;;1.02;;
76208;SDS011;64990;51.698;-0.292;2024-02-16T11:38:25;1.88;;;1.13;;
76208;SDS011;64990;51.698;-0.292;2024-02-16T11:40:58;10.00;;;2.35;;
76208;SDS011;64990;51.698;-0.292;2024-02-16T11:43:24;44.67;;;2.55;;
76208;SDS011;64990;51.698;-0.292;2024-02-16T11:45:51;7.70;;;0.77;;
76208;SDS011;64990;51.698;-0.292;2024-02-16T11:48:23;4.68;;;1.42;;
76208;SDS011;64990;51.698;-0.292;2024-02-16T11:50:50;1.50;;;0.70;;
76208;SDS011;64990;51.698;-0.292;2024-02-16T11:53:24;6.85;;;1.67;;
76208;SDS011;64990;51.698;-0.292;2024-02-16T11:55:50;3.80;;;0.93;;
76208;SDS011;64990;51.698;-0.292;2024-02-16T11:58:16;5.88;;;0.85;;
76208;SDS011;64990;51.698;-0.292;2024-02-16T12:00:46;5.10;;;1.35;;
76208;SDS011;64990;51.698;-0.292;2024-02-16T12:03:24;9.45;;;1.45;;
76208;SDS011;64990;51.698;-0.292;2024-02-16T12:05:53;11.98;;;3.08;;
76208;SDS011;64990;51.698;-0.292;2024-02-16T12:08:19;1.55;;;1.13;;
76208;SDS011;64990;51.698;-0.292;2024-02-16T12:10:47;3.60;;;1.00;;
76208;SDS011;64990;51.698;-0.292;2024-02-16T12:13:15;2.40;;;1.40;;
76208;SDS011;64990;51.698;-0.292;2024-02-16T12:15:41;1.15;;;0.50;;
76208;SDS011;64990;51.698;-0.292;2024-02-16T12:18:09;2.85;;;1.05;;
76208;SDS011;64990;51.698;-0.292;2024-02-16T12:20:35;4.43;;;0.85;;
76208;SDS011;64990;51.698;-0.292;2024-02-16T12:23:10;4.82;;;2.20;;
76208;SDS011;64990;51.698;-0.292;2024-02-16T12:25:37;2.92;;;1.48;;
76208;SDS011;64990;51.698;-0.292;2024-02-16T12:28:03;6.57;;;1.30;;
76208;SDS011;64990;51.698;-0.292;2024-02-16T12:30:29;10.55;;;1.20;;
76208;SDS011;64990;51.698;-0.292;2024-02-16T12:32:55;4.45;;;2.15;;
76208;SDS011;64990;51.698;-0.292;2024-02-16T12:35:21;6.25;;;2.15;;
76208;SDS011;64990;51.698;-0.292;2024-02-16T12:37:47;7.00;;;1.95;;
76208;SDS011;64990;51.698;-0.292;2024-02-16T12:40:13;4.72;;;1.17;;
76208;SDS011;64990;51.698;-0.292;2024-02-16T12:42:39;1.88;;;0.90;;
76208;SDS011;64990;51.698;-0.292;2024-02-16T12:45:05;0.80;;;0.50;;
76208;SDS011;64990;51.698;-0.292;2024-02-16T12:47:31;6.80;;;1.35;;
76208;SDS011;64990;51.698;-0.292;2024-02-16T12:49:57;2.60;;;1.02;;
76208;SDS011;64990;51.698;-0.292;2024-02-16T12:52:23;2.35;;;1.02;;
76208;SDS011;64990;51.698;-0.292;2024-02-16T12:54:49;3.60;;;1.65;;
76208;SDS011;64990;51.698;-0.292;2024-02-16T12:57:15;1.80;;;0.70;;
76208;SDS011;64990;51.698;-0.292;2024-02-16T12:59:41;3.03;;;1.73;;
76208;SDS011;64990;51.698;-0.292;2024-02-16T13:02:07;2.33;;;1.10;;
76208;SDS011;64990;51.698;-0.292;2024-02-16T13:04:33;7.90;;;1.20;;
76208;SDS011;64990;51.698;-0.292;2024-02-16T13:06:59;2.03;;;1.15;;
76208;SDS011;64990;51.698;-0.292;2024-02-16T13:09:25;3.83;;;1.80;;
76208;SDS011;64990;51.698;-0.292;2024-02-16T13:11:53;1.98;;;1.15;;
76208;SDS011;64990;51.698;-0.292;2024-02-16T13:14:20;3.38;;;0.93;;
76208;SDS011;64990;51.698;-0.292;2024-02-16T13:16:46;3.05;;;1.33;;
76208;SDS011;64990;51.698;-0.292;2024-02-16T13:19:12;2.38;;;1.08;;
76208;SDS011;64990;51.698;-0.292;2024-02-16T13:21:38;13.98;;;1.50;;
76208;SDS011;64990;51.698;-0.292;2024-02-16T13:24:04;5.78;;;1.17;;
76208;SDS011;64990;51.698;-0.292;2024-02-16T13:26:31;1.80;;;1.13;;
76208;SDS011;64990;51.698;-0.292;2024-02-16T13:28:57;1.52;;;0.73;;
76208;SDS011;64990;51.698;-0.292;2024-02-16T13:31:24;2.30;;;0.65;;
76208;SDS011;64990;51.698;-0.292;2024-02-16T13:33:53;15.25;;;1.80;;
76208;SDS011;64990;51.698;-0.292;2024-02-16T13:36:19;4.95;;;1.05;;
76208;SDS011;64990;51.698;-0.292;2024-02-16T13:38:45;6.72;;;0.68;;
76208;SDS011;64990;51.698;-0.292;2024-02-16T13:41:11;6.80;;;1.02;;
76208;SDS011;64990;51.698;-0.292;2024-02-16T13:43:37;3.88;;;0.90;;
76208;SDS011;64990;51.698;-0.292;2024-02-16T13:46:03;6.68;;;1.08;;
76208;SDS011;64990;51.698;-0.292;2024-02-16T13:48:29;2.45;;;0.60;;
76208;SDS011;64990;51.698;-0.292;2024-02-16T13:50:56;2.08;;;0.73;;
76208;SDS011;64990;51.698;-0.292;2024-02-16T13:53:22;13.38;;;1.88;;
76208;SDS011;64990;51.698;-0.292;2024-02-16T13:55:48;3.10;;;1.00;;
76208;SDS011;64990;51.698;-0.292;2024-02-16T13:58:14;3.70;;;1.60;;
76208;SDS011;64990;51.698;-0.292;2024-02-16T14:00:40;4.75;;;1.25;;
76208;SDS011;64990;51.698;-0.292;2024-02-16T14:03:08;11.35;;;2.15;;
76208;SDS011;64990;51.698;-0.292;2024-02-16T14:05:35;1.85;;;1.13;;
76208;SDS011;64990;51.698;-0.292;2024-02-16T14:08:01;6.47;;;1.15;;
76208;SDS011;64990;51.698;-0.292;2024-02-16T14:10:28;10.43;;;2.22;;
76208;SDS011;64990;51.698;-0.292;2024-02-16T14:12:54;7.55;;;2.03;;
76208;SDS011;64990;51.698;-0.292;2024-02-16T14:15:20;5.93;;;1.48;;
76208;SDS011;64990;51.698;-0.292;2024-02-16T14:17:46;3.45;;;1.00;;
76208;SDS011;64990;51.698;-0.292;2024-02-16T14:20:12;8.52;;;1.58;;
76208;SDS011;64990;51.698;-0.292;2024-02-16T14:22:39;6.10;;;1.85;;
76208;SDS011;64990;51.698;-0.292;2024-02-16T14:25:05;2.45;;;1.00;;
76208;SDS011;64990;51.698;-0.292;2024-02-16T14:27:31;5.57;;;2.03;;
76208;SDS011;64990;51.698;-0.292;2024-02-16T14:29:57;7.10;;;1.88;;